createdAt,value
2022-08-03T00:00:53.890Z,21.90
2022-08-03T00:01:55.381Z,21.87
2022-08-03T00:02:56.941Z,21.88
2022-08-03T00:03:58.479Z,21.86
2022-08-03T00:05:00.013Z,21.85
2022-08-03T00:06:04.732Z,21.83
2022-08-03T00:07:06.688Z,21.81
2022-08-03T00:08:08.334Z,21.80
2022-08-03T00:09:10.676Z,21.78
2022-08-03T00:10:13.524Z,21.78
2022-08-03T00:11:15.055Z,21.81
2022-08-03T00:12:17.205Z,21.78
2022-08-03T00:13:18.918Z,21.76
2022-08-03T00:14:20.415Z,21.75
2022-08-03T00:15:21.999Z,21.75
2022-08-03T00:16:24.476Z,21.75
2022-08-03T00:17:26.048Z,21.74
2022-08-03T00:18:27.551Z,21.76
2022-08-03T00:19:29.277Z,21.78
2022-08-03T00:20:30.768Z,21.79
2022-08-03T00:21:32.303Z,21.78
2022-08-03T00:22:35.321Z,21.77
2022-08-03T00:23:51.129Z,21.78
2022-08-03T00:24:53.437Z,21.76
2022-08-03T00:25:54.979Z,21.76
2022-08-03T00:26:56.469Z,21.72
2022-08-03T00:27:58.130Z,21.69
2022-08-03T00:28:59.600Z,21.66
2022-08-03T00:30:01.099Z,21.64
2022-08-03T00:31:02.856Z,21.62
2022-08-03T00:32:05.175Z,21.62
2022-08-03T00:33:06.802Z,21.62
2022-08-03T00:34:09.943Z,21.61
2022-08-03T00:35:18.286Z,21.61
2022-08-03T00:36:33.138Z,21.57
2022-08-03T00:37:41.610Z,21.53
2022-08-03T00:38:43.503Z,21.52
2022-08-03T00:39:45.052Z,21.50
2022-08-03T00:40:46.765Z,21.48
2022-08-03T00:41:48.231Z,21.47
2022-08-03T00:43:00.935Z,21.45
2022-08-03T00:44:02.510Z,21.44
2022-08-03T00:45:04.239Z,21.43
2022-08-03T00:46:05.863Z,21.43
2022-08-03T00:47:08.022Z,21.43
2022-08-03T00:48:29.728Z,21.41
2022-08-03T00:49:32.742Z,21.39
2022-08-03T00:50:40.225Z,21.38
2022-08-03T00:51:41.894Z,21.35
2022-08-03T00:52:44.019Z,21.33
2022-08-03T00:53:45.621Z,21.32
2022-08-03T00:54:47.206Z,21.31
2022-08-03T00:55:48.827Z,21.31
2022-08-03T00:57:00.141Z,21.32
2022-08-03T00:58:03.321Z,21.31
2022-08-03T00:59:04.974Z,21.31
2022-08-03T01:00:08.734Z,21.29
2022-08-03T01:01:10.752Z,21.24
2022-08-03T01:02:12.444Z,21.23
2022-08-03T01:03:13.973Z,21.25
2022-08-03T01:04:15.643Z,21.27
2022-08-03T01:05:17.669Z,21.28
2022-08-03T01:06:42.464Z,21.28
2022-08-03T01:08:12.171Z,21.28
2022-08-03T01:09:31.265Z,21.24
2022-08-03T01:11:00.263Z,21.21
2022-08-03T01:12:18.918Z,21.17
2022-08-03T01:14:01.390Z,21.14
2022-08-03T01:15:27.217Z,21.13
2022-08-03T01:16:36.750Z,21.09
2022-08-03T01:17:46.426Z,21.10
2022-08-03T01:18:54.489Z,21.09
2022-08-03T01:19:58.374Z,21.07
2022-08-03T01:21:07.171Z,21.07
2022-08-03T01:22:48.295Z,21.09
2022-08-03T01:24:20.131Z,21.07
2022-08-03T01:25:37.043Z,21.03
2022-08-03T01:27:10.810Z,21.00
2022-08-03T01:29:09.195Z,20.98
2022-08-03T01:30:12.207Z,20.96
2022-08-03T01:31:18.752Z,20.97
2022-08-03T01:32:58.900Z,20.98
2022-08-03T01:33:52.688Z,20.97
2022-08-03T01:35:04.634Z,20.97
2022-08-03T01:36:16.165Z,20.98
2022-08-03T01:37:24.797Z,20.97
2022-08-03T01:38:31.966Z,20.98
2022-08-03T01:39:36.731Z,20.98
2022-08-03T01:40:41.222Z,20.97
2022-08-03T01:41:49.360Z,20.99
2022-08-03T01:42:52.152Z,20.99
2022-08-03T01:44:28.172Z,20.98
2022-08-03T01:45:17.910Z,20.98
2022-08-03T01:46:21.559Z,20.96
2022-08-03T01:47:25.267Z,20.94
2022-08-03T01:48:27.996Z,20.95
2022-08-03T01:49:33.775Z,20.94
2022-08-03T01:50:36.088Z,20.92
2022-08-03T01:52:03.393Z,20.92
2022-08-03T01:53:03.787Z,20.88
2022-08-03T01:54:07.889Z,20.86
2022-08-03T01:55:11.144Z,20.85
2022-08-03T01:56:14.579Z,20.85
2022-08-03T01:57:17.551Z,20.80
2022-08-03T01:58:20.846Z,20.80
2022-08-03T01:59:23.621Z,20.78
2022-08-03T02:00:26.930Z,20.78
2022-08-03T02:02:29.892Z,20.76
2022-08-03T02:02:54.518Z,20.71
2022-08-03T02:04:00.927Z,20.67
2022-08-03T02:05:05.752Z,20.68
2022-08-03T02:07:00.556Z,20.65
2022-08-03T02:07:36.719Z,20.63
2022-08-03T02:08:41.687Z,20.67
2022-08-03T02:09:46.662Z,20.67
2022-08-03T02:10:49.932Z,20.66
2022-08-03T02:11:52.971Z,20.66
2022-08-03T02:12:55.379Z,20.66
2022-08-03T02:14:00.689Z,20.61
2022-08-03T02:15:02.854Z,20.66
2022-08-03T02:16:05.119Z,20.67
2022-08-03T02:17:07.959Z,20.65
2022-08-03T02:18:10.890Z,20.66
2022-08-03T02:19:13.578Z,20.66
2022-08-03T02:20:16.181Z,20.68
2022-08-03T02:21:21.030Z,20.67
2022-08-03T02:22:41.320Z,20.67
2022-08-03T02:23:42.836Z,20.70
2022-08-03T02:24:49.336Z,20.69
2022-08-03T02:25:58.240Z,20.68
2022-08-03T02:27:05.722Z,20.66
2022-08-03T02:28:22.149Z,20.63
2022-08-03T02:29:39.629Z,20.63
2022-08-03T02:30:45.406Z,20.57
2022-08-03T02:31:50.175Z,20.60
2022-08-03T02:32:55.317Z,20.57
2022-08-03T02:34:01.927Z,20.55
2022-08-03T02:35:06.007Z,20.49
2022-08-03T02:36:08.888Z,20.45
2022-08-03T02:37:11.950Z,20.45
2022-08-03T02:38:15.980Z,20.44
2022-08-03T02:39:20.598Z,20.44
2022-08-03T02:40:24.218Z,20.44
2022-08-03T02:41:37.006Z,20.43
2022-08-03T02:42:41.379Z,20.43
2022-08-03T02:44:05.934Z,20.45
2022-08-03T02:45:11.937Z,20.54
2022-08-03T02:46:18.071Z,20.54
2022-08-03T02:47:20.372Z,20.55
2022-08-03T02:48:27.901Z,20.56
2022-08-03T02:49:49.539Z,20.56
2022-08-03T02:50:53.657Z,20.57
2022-08-03T02:51:57.090Z,20.56
2022-08-03T02:52:59.567Z,20.60
2022-08-03T02:54:04.184Z,20.61
2022-08-03T02:55:08.278Z,20.61
2022-08-03T02:56:10.414Z,20.58
2022-08-03T02:57:13.119Z,20.58
2022-08-03T02:58:18.454Z,20.58
2022-08-03T02:59:21.046Z,20.55
2022-08-03T03:00:28.485Z,20.52
2022-08-03T03:01:31.341Z,20.57
2022-08-03T03:02:34.203Z,20.56
2022-08-03T03:03:44.899Z,20.57
2022-08-03T03:05:50.885Z,20.54
2022-08-03T03:06:13.382Z,20.56
2022-08-03T03:07:17.468Z,20.63
2022-08-03T03:08:20.826Z,20.66
2022-08-03T03:09:29.163Z,20.66
2022-08-03T03:10:43.010Z,20.60
2022-08-03T03:11:45.900Z,20.58
2022-08-03T03:12:49.118Z,20.58
2022-08-03T03:13:51.546Z,20.53
2022-08-03T03:14:53.148Z,20.53
2022-08-03T03:15:56.981Z,20.52
2022-08-03T03:16:58.787Z,20.55
2022-08-03T03:18:01.488Z,20.55
2022-08-03T03:19:03.158Z,20.56
2022-08-03T03:20:07.215Z,20.56
2022-08-03T03:21:09.988Z,20.55
2022-08-03T03:22:13.112Z,20.55
2022-08-03T03:23:15.418Z,20.53
2022-08-03T03:24:17.827Z,20.55
2022-08-03T03:25:20.116Z,20.51
2022-08-03T03:26:23.060Z,20.52
2022-08-03T03:27:24.926Z,20.52
2022-08-03T03:28:30.507Z,20.54
2022-08-03T03:29:39.134Z,20.48
2022-08-03T03:30:41.163Z,20.56
2022-08-03T03:31:42.748Z,20.55
2022-08-03T03:32:44.375Z,20.57
2022-08-03T03:33:46.455Z,20.57
2022-08-03T03:34:48.163Z,20.61
2022-08-03T03:35:50.605Z,20.60
2022-08-03T03:36:52.083Z,20.57
2022-08-03T03:37:53.667Z,20.50
2022-08-03T03:38:55.273Z,20.48
2022-08-03T03:39:56.807Z,20.41
2022-08-03T03:40:58.496Z,20.43
2022-08-03T03:42:00.719Z,20.41
2022-08-03T03:43:03.168Z,20.37
2022-08-03T03:44:04.966Z,20.36
2022-08-03T03:45:07.736Z,20.34
2022-08-03T03:46:13.140Z,20.29
2022-08-03T03:47:14.828Z,20.28
2022-08-03T03:48:20.222Z,20.29
2022-08-03T03:49:21.737Z,20.32
2022-08-03T03:50:24.360Z,20.31
2022-08-03T03:51:25.871Z,20.29
2022-08-03T03:52:27.390Z,20.31
2022-08-03T03:53:28.902Z,20.30
2022-08-03T03:54:43.869Z,20.29
2022-08-03T03:55:59.210Z,20.27
2022-08-03T03:57:04.265Z,20.29
2022-08-03T03:58:06.299Z,20.31
2022-08-03T03:59:07.840Z,20.31
2022-08-03T04:00:10.292Z,20.30
2022-08-03T04:01:13.113Z,20.29
2022-08-03T04:02:15.294Z,20.32
2022-08-03T04:03:17.059Z,20.29
2022-08-03T04:04:18.618Z,20.33
2022-08-03T04:05:20.144Z,20.33
2022-08-03T04:06:21.708Z,20.30
2022-08-03T04:07:25.279Z,20.26
2022-08-03T04:08:26.725Z,20.27
2022-08-03T04:09:28.465Z,20.25
2022-08-03T04:10:33.850Z,20.24
2022-08-03T04:11:40.496Z,20.24
2022-08-03T04:12:49.989Z,20.25
2022-08-03T04:14:02.024Z,20.24
2022-08-03T04:15:05.065Z,20.27
2022-08-03T04:16:09.570Z,20.26
2022-08-03T04:17:12.739Z,20.27
2022-08-03T04:18:16.998Z,20.31
2022-08-03T04:19:40.896Z,20.35
2022-08-03T04:20:47.713Z,20.32
2022-08-03T04:21:52.015Z,20.31
2022-08-03T04:22:55.851Z,20.33
2022-08-03T04:24:01.800Z,20.34
2022-08-03T04:25:07.183Z,20.35
2022-08-03T04:26:13.019Z,20.33
2022-08-03T04:27:18.054Z,20.34
2022-08-03T04:28:31.321Z,20.29
2022-08-03T04:29:35.700Z,20.26
2022-08-03T04:30:41.067Z,20.26
2022-08-03T04:31:45.251Z,20.20
2022-08-03T04:32:47.653Z,20.26
2022-08-03T04:33:53.033Z,20.26
2022-08-03T04:34:54.657Z,20.23
2022-08-03T04:36:02.534Z,20.32
2022-08-03T04:37:11.284Z,20.25
2022-08-03T04:38:15.507Z,20.26
2022-08-03T04:39:23.558Z,20.25
2022-08-03T04:40:32.851Z,20.26
2022-08-03T04:42:07.312Z,20.29
2022-08-03T04:42:59.355Z,20.33
2022-08-03T04:44:02.143Z,20.37
2022-08-03T04:45:05.410Z,20.37
2022-08-03T04:46:08.352Z,20.41
2022-08-03T04:47:09.941Z,20.60
2022-08-03T04:48:11.529Z,21.00
2022-08-03T04:49:13.665Z,21.64
2022-08-03T04:50:19.507Z,22.43
2022-08-03T04:51:38.879Z,23.33
2022-08-03T04:52:40.678Z,23.94
2022-08-03T04:53:43.855Z,24.43
2022-08-03T04:54:50.941Z,24.74
2022-08-03T04:55:52.732Z,24.91
2022-08-03T04:56:54.222Z,25.08
2022-08-03T04:57:56.509Z,25.46
2022-08-03T04:58:58.026Z,25.82
2022-08-03T05:00:03.081Z,26.16
2022-08-03T05:01:05.190Z,26.70
2022-08-03T05:02:06.685Z,27.06
2022-08-03T05:03:20.285Z,27.42
2022-08-03T05:04:25.952Z,27.83
2022-08-03T05:05:37.857Z,28.18
2022-08-03T05:06:55.144Z,28.77
2022-08-03T05:07:57.379Z,28.87
2022-08-03T05:09:03.060Z,28.92
2022-08-03T05:10:16.240Z,29.49
2022-08-03T05:11:18.366Z,29.40
2022-08-03T05:12:19.901Z,29.85
2022-08-03T05:13:21.477Z,30.01
2022-08-03T05:14:27.970Z,30.16
2022-08-03T05:15:29.943Z,30.64
2022-08-03T05:16:34.229Z,30.64
2022-08-03T05:17:35.850Z,30.71
2022-08-03T05:18:37.802Z,30.71
2022-08-03T05:19:39.281Z,30.24
2022-08-03T05:20:40.884Z,30.34
2022-08-03T05:21:52.332Z,30.26
2022-08-03T05:22:54.242Z,30.17
2022-08-03T05:23:55.812Z,30.06
2022-08-03T05:24:57.865Z,29.96
2022-08-03T05:25:59.475Z,30.00
2022-08-03T05:27:00.994Z,29.75
2022-08-03T05:28:02.534Z,29.70
2022-08-03T05:29:04.031Z,29.72
2022-08-03T05:30:27.157Z,29.53
2022-08-03T05:31:27.706Z,29.70
2022-08-03T05:32:29.216Z,29.83
2022-08-03T05:33:30.788Z,30.16
2022-08-03T05:34:32.355Z,30.65
2022-08-03T05:36:01.981Z,31.12
2022-08-03T05:36:55.407Z,31.42
2022-08-03T05:37:57.006Z,31.37
2022-08-03T05:39:02.477Z,32.01
2022-08-03T05:40:05.066Z,32.30
2022-08-03T05:41:21.657Z,32.71
2022-08-03T05:42:25.417Z,33.13
2022-08-03T05:43:27.068Z,33.85
2022-08-03T05:44:29.072Z,34.61
2022-08-03T05:45:35.313Z,34.72
2022-08-03T05:46:37.106Z,35.10
2022-08-03T05:47:38.581Z,35.26
2022-08-03T05:48:40.973Z,35.20
2022-08-03T05:49:42.860Z,35.20
2022-08-03T05:50:44.381Z,35.19
2022-08-03T05:51:46.147Z,35.10
2022-08-03T05:52:47.949Z,35.06
2022-08-03T05:53:49.774Z,35.09
2022-08-03T05:54:55.818Z,34.88
2022-08-03T05:56:02.516Z,35.01
2022-08-03T05:57:15.041Z,34.77
2022-08-03T05:58:16.568Z,34.67
2022-08-03T05:59:37.678Z,34.76
2022-08-03T06:00:39.911Z,35.01
2022-08-03T06:01:41.423Z,35.22
2022-08-03T06:02:43.009Z,35.44
2022-08-03T06:03:48.792Z,35.44
2022-08-03T06:04:50.474Z,35.02
2022-08-03T06:05:57.377Z,34.82
2022-08-03T06:07:02.025Z,35.09
2022-08-03T06:08:03.869Z,34.93
2022-08-03T06:09:06.095Z,35.07
2022-08-03T06:10:36.923Z,34.92
2022-08-03T06:11:30.014Z,34.74
2022-08-03T06:12:31.782Z,34.98
2022-08-03T06:13:33.331Z,35.05
2022-08-03T06:14:34.947Z,35.51
2022-08-03T06:15:36.496Z,35.82
2022-08-03T06:16:38.020Z,36.22
2022-08-03T06:17:49.459Z,36.61
2022-08-03T06:18:50.997Z,36.71
2022-08-03T06:19:53.335Z,36.50
2022-08-03T06:20:55.235Z,36.47
2022-08-03T06:21:56.751Z,36.17
2022-08-03T06:23:00.203Z,36.49
2022-08-03T06:24:02.850Z,36.72
2022-08-03T06:25:10.240Z,37.07
2022-08-03T06:26:14.471Z,37.14
2022-08-03T06:27:17.762Z,37.73
2022-08-03T06:28:51.436Z,38.03
2022-08-03T06:29:41.486Z,38.75
2022-08-03T06:30:43.155Z,39.11
2022-08-03T06:31:45.403Z,39.48
2022-08-03T06:32:51.675Z,39.81
2022-08-03T06:34:33.833Z,39.39
2022-08-03T06:35:15.752Z,39.19
2022-08-03T06:36:17.398Z,39.22
2022-08-03T06:37:18.961Z,39.04
2022-08-03T06:38:20.554Z,39.16
2022-08-03T06:39:23.408Z,39.18
2022-08-03T06:40:25.593Z,39.22
2022-08-03T06:41:27.727Z,39.66
2022-08-03T06:42:29.249Z,39.60
2022-08-03T06:43:31.470Z,40.04
2022-08-03T06:44:37.433Z,40.71
2022-08-03T06:45:39.276Z,40.73
2022-08-03T06:46:40.755Z,40.90
2022-08-03T06:47:42.251Z,41.06
2022-08-03T06:48:46.765Z,40.65
2022-08-03T06:50:17.234Z,40.65
2022-08-03T06:51:09.978Z,40.82
2022-08-03T06:52:11.503Z,41.29
2022-08-03T06:53:19.913Z,41.29
2022-08-03T06:54:23.098Z,40.90
2022-08-03T06:55:25.063Z,40.88
2022-08-03T06:56:26.597Z,40.43
2022-08-03T06:57:28.290Z,40.25
2022-08-03T06:58:29.904Z,40.12
2022-08-03T07:00:08.076Z,40.28
2022-08-03T07:00:53.256Z,40.20
2022-08-03T07:01:54.801Z,40.25
2022-08-03T07:02:58.485Z,40.58
2022-08-03T07:04:00.221Z,40.22
2022-08-03T07:05:01.673Z,40.41
2022-08-03T07:06:03.477Z,40.36
2022-08-03T07:07:05.048Z,40.37
2022-08-03T07:08:07.203Z,40.31
2022-08-03T07:09:08.739Z,40.46
2022-08-03T07:10:10.883Z,40.46
2022-08-03T07:11:12.464Z,40.78
2022-08-03T07:12:14.000Z,40.50
2022-08-03T07:13:15.542Z,40.95
2022-08-03T07:14:17.097Z,41.09
2022-08-03T07:15:20.418Z,41.12
2022-08-03T07:16:39.681Z,41.46
2022-08-03T07:17:41.179Z,41.57
2022-08-03T07:18:42.677Z,41.82
2022-08-03T07:19:44.148Z,42.03
2022-08-03T07:20:45.650Z,42.01
2022-08-03T07:21:47.157Z,41.76
2022-08-03T07:22:48.959Z,41.20
2022-08-03T07:23:50.416Z,40.94
2022-08-03T07:24:51.876Z,40.48
2022-08-03T07:25:53.367Z,40.72
2022-08-03T07:26:55.057Z,40.44
2022-08-03T07:27:56.592Z,40.58
2022-08-03T07:29:00.409Z,40.57
2022-08-03T07:30:02.091Z,40.28
2022-08-03T07:31:03.752Z,39.57
2022-08-03T07:32:05.759Z,39.16
2022-08-03T07:33:07.244Z,39.08
2022-08-03T07:34:08.863Z,39.47
2022-08-03T07:35:24.284Z,39.60
2022-08-03T07:36:26.658Z,39.77
2022-08-03T07:37:29.720Z,39.99
2022-08-03T07:38:31.283Z,39.70
2022-08-03T07:39:32.843Z,39.50
2022-08-03T07:40:34.394Z,38.95
2022-08-03T07:41:35.898Z,38.60
2022-08-03T07:42:37.419Z,37.90
2022-08-03T07:43:38.907Z,37.34
2022-08-03T07:44:40.746Z,36.82
2022-08-03T07:45:42.245Z,36.16
2022-08-03T07:46:44.040Z,35.34
2022-08-03T07:47:46.247Z,34.55
2022-08-03T07:48:55.315Z,34.11
2022-08-03T07:49:57.727Z,33.57
2022-08-03T07:50:59.204Z,33.27
2022-08-03T07:52:00.712Z,32.96
2022-08-03T07:53:02.230Z,32.79
2022-08-03T07:54:04.070Z,32.60
2022-08-03T07:55:07.131Z,32.52
2022-08-03T07:56:11.408Z,32.32
2022-08-03T07:57:13.102Z,32.08
2022-08-03T07:58:14.620Z,32.02
2022-08-03T07:59:16.095Z,31.94
2022-08-03T08:00:19.278Z,31.88
2022-08-03T08:01:21.323Z,31.79
2022-08-03T08:02:22.870Z,31.86
2022-08-03T08:03:24.429Z,31.78
2022-08-03T08:04:25.954Z,31.64
2022-08-03T08:05:27.884Z,31.58
2022-08-03T08:06:29.540Z,31.56
2022-08-03T08:07:31.101Z,31.42
2022-08-03T08:08:32.655Z,31.48
2022-08-03T08:09:34.213Z,31.46
2022-08-03T08:10:36.932Z,31.48
2022-08-03T08:11:40.113Z,31.43
2022-08-03T08:12:41.881Z,31.34
2022-08-03T08:13:44.136Z,31.31
2022-08-03T08:14:45.635Z,31.20
2022-08-03T08:15:47.245Z,31.14
2022-08-03T08:16:48.865Z,31.13
2022-08-03T08:17:56.654Z,31.06
2022-08-03T08:18:58.130Z,30.96
2022-08-03T08:19:59.619Z,30.97
2022-08-03T08:21:01.677Z,30.89
2022-08-03T08:22:03.381Z,30.88
2022-08-03T08:23:25.490Z,30.91
2022-08-03T08:24:29.803Z,30.98
2022-08-03T08:25:33.729Z,30.99
2022-08-03T08:26:35.643Z,31.04
2022-08-03T08:28:30.081Z,30.97
2022-08-03T08:29:07.222Z,30.83
2022-08-03T08:30:12.260Z,30.76
2022-08-03T08:31:15.437Z,30.76
2022-08-03T08:32:17.310Z,30.66
2022-08-03T08:33:23.389Z,30.68
2022-08-03T08:34:25.566Z,30.66
2022-08-03T08:35:27.245Z,30.71
2022-08-03T08:36:28.776Z,30.75
2022-08-03T08:37:30.545Z,30.87
2022-08-03T08:38:32.155Z,30.83
2022-08-03T08:39:33.704Z,30.89
2022-08-03T08:40:35.238Z,30.95
2022-08-03T08:41:36.803Z,31.01
2022-08-03T08:42:40.252Z,30.94
2022-08-03T08:43:43.752Z,30.89
2022-08-03T08:44:45.299Z,30.86
2022-08-03T08:45:49.902Z,30.91
2022-08-03T08:46:53.423Z,30.92
2022-08-03T08:48:01.081Z,30.98
2022-08-03T08:49:05.172Z,30.99
2022-08-03T08:50:15.548Z,31.08
2022-08-03T08:51:50.620Z,31.14
2022-08-03T08:53:00.306Z,31.07
2022-08-03T08:54:03.025Z,31.13
2022-08-03T08:55:06.829Z,31.10
2022-08-03T08:56:12.379Z,31.16
2022-08-03T08:57:33.574Z,31.13
2022-08-03T08:58:39.314Z,31.04
2022-08-03T08:59:48.017Z,31.12
2022-08-03T09:00:51.545Z,31.02
2022-08-03T09:01:57.486Z,31.12
2022-08-03T09:03:00.734Z,31.33
2022-08-03T09:04:05.910Z,31.24
2022-08-03T09:05:10.694Z,31.27
2022-08-03T09:06:12.286Z,31.35
2022-08-03T09:07:20.022Z,31.39
2022-08-03T09:08:22.094Z,31.35
2022-08-03T09:10:10.508Z,31.47
2022-08-03T09:10:45.207Z,31.39
2022-08-03T09:11:54.477Z,31.28
2022-08-03T09:13:02.719Z,31.16
2022-08-03T09:14:05.257Z,31.17
2022-08-03T09:15:24.506Z,31.22
2022-08-03T09:16:26.010Z,31.43
2022-08-03T09:17:40.349Z,31.34
2022-08-03T09:18:44.277Z,31.31
2022-08-03T09:20:05.228Z,31.38
2022-08-03T09:21:30.601Z,31.44
2022-08-03T09:22:33.142Z,31.33
2022-08-03T09:24:01.500Z,31.33
2022-08-03T09:25:23.957Z,31.30
2022-08-03T09:26:30.666Z,31.30
2022-08-03T09:27:46.008Z,31.33
2022-08-03T09:29:02.608Z,31.25
2022-08-03T09:30:32.550Z,31.48
2022-08-03T09:31:36.740Z,31.35
2022-08-03T09:32:38.405Z,31.40
2022-08-03T09:33:49.013Z,31.46
2022-08-03T09:34:56.542Z,31.36
2022-08-03T09:35:59.669Z,31.40
2022-08-03T09:37:01.216Z,31.49
2022-08-03T09:38:17.544Z,31.50
2022-08-03T09:39:41.016Z,31.55
2022-08-03T09:40:45.224Z,31.54
2022-08-03T09:42:06.421Z,31.52
2022-08-03T09:43:09.091Z,31.62
2022-08-03T09:44:24.332Z,31.42
2022-08-03T09:45:27.845Z,31.43
2022-08-03T09:46:29.319Z,31.60
2022-08-03T09:47:35.802Z,31.71
2022-08-03T09:48:37.415Z,31.75
2022-08-03T09:49:41.063Z,31.77
2022-08-03T09:50:56.856Z,31.88
2022-08-03T09:52:38.613Z,31.78
2022-08-03T09:53:59.121Z,31.90
2022-08-03T09:55:07.743Z,31.88
2022-08-03T09:56:46.808Z,31.80
2022-08-03T09:57:48.438Z,31.81
2022-08-03T09:58:50.193Z,31.77
2022-08-03T10:00:04.540Z,31.81
2022-08-03T10:01:23.833Z,31.85
2022-08-03T10:02:27.806Z,31.85
2022-08-03T10:03:36.391Z,31.94
2022-08-03T10:04:57.879Z,31.96
2022-08-03T10:06:14.536Z,32.03
2022-08-03T10:07:16.249Z,32.07
2022-08-03T10:08:19.809Z,32.09
2022-08-03T10:09:21.302Z,32.03
2022-08-03T10:10:30.520Z,32.04
2022-08-03T10:11:40.552Z,32.08
2022-08-03T10:12:43.777Z,32.00
2022-08-03T10:13:45.973Z,31.94
2022-08-03T10:14:47.746Z,31.94
2022-08-03T10:16:23.956Z,31.94
2022-08-03T10:17:11.281Z,32.03
2022-08-03T10:18:13.085Z,32.07
2022-08-03T10:19:15.529Z,32.16
2022-08-03T10:20:17.094Z,32.23
2022-08-03T10:21:20.143Z,32.29
2022-08-03T10:22:27.241Z,32.34
2022-08-03T10:23:33.495Z,32.48
2022-08-03T10:24:37.259Z,32.59
2022-08-03T10:25:40.043Z,32.63
2022-08-03T10:26:49.909Z,32.56
2022-08-03T10:27:53.069Z,32.44
2022-08-03T10:28:59.654Z,32.53
2022-08-03T10:30:04.202Z,32.55
2022-08-03T10:31:06.820Z,32.62
2022-08-03T10:32:18.793Z,32.66
2022-08-03T10:33:49.518Z,32.70
2022-08-03T10:34:50.499Z,32.88
2022-08-03T10:35:56.245Z,33.09
2022-08-03T10:37:00.482Z,33.07
2022-08-03T10:38:06.447Z,33.06
2022-08-03T10:39:16.387Z,32.98
2022-08-03T10:40:39.527Z,33.03
2022-08-03T10:41:45.025Z,33.03
2022-08-03T10:42:47.213Z,33.08
2022-08-03T10:44:09.804Z,33.10
2022-08-03T10:45:23.700Z,33.24
2022-08-03T10:46:27.455Z,33.11
2022-08-03T10:47:30.606Z,33.02
2022-08-03T10:48:33.242Z,32.90
2022-08-03T10:49:35.755Z,32.95
2022-08-03T10:50:37.666Z,33.06
2022-08-03T10:51:39.483Z,33.07
2022-08-03T10:53:03.890Z,33.18
2022-08-03T10:54:05.656Z,33.22
2022-08-03T10:55:30.742Z,33.15
2022-08-03T10:56:46.669Z,33.21
2022-08-03T10:57:58.490Z,33.27
2022-08-03T10:59:00.560Z,33.36
2022-08-03T11:00:06.047Z,33.66
2022-08-03T11:01:09.622Z,33.76
2022-08-03T11:02:11.576Z,33.78
2022-08-03T11:03:14.228Z,33.78
2022-08-03T11:04:17.895Z,33.72
2022-08-03T11:05:27.726Z,33.71
2022-08-03T11:06:29.289Z,33.74
2022-08-03T11:07:39.176Z,33.85
2022-08-03T11:08:40.920Z,33.86
2022-08-03T11:09:44.632Z,33.90
2022-08-03T11:10:47.132Z,33.92
2022-08-03T11:11:48.799Z,34.00
2022-08-03T11:12:50.815Z,34.14
2022-08-03T11:14:11.766Z,34.22
2022-08-03T11:15:13.629Z,34.35
2022-08-03T11:16:22.055Z,34.56
2022-08-03T11:17:24.386Z,34.66
2022-08-03T11:18:27.138Z,34.68
2022-08-03T11:19:57.411Z,34.81
2022-08-03T11:21:00.438Z,34.67
2022-08-03T11:22:02.077Z,34.51
2022-08-03T11:23:03.699Z,34.46
2022-08-03T11:24:06.772Z,34.46
2022-08-03T11:25:08.689Z,34.38
2022-08-03T11:26:30.239Z,34.48
2022-08-03T11:27:33.373Z,34.53
2022-08-03T11:28:35.091Z,34.63
2022-08-03T11:29:36.611Z,34.69
2022-08-03T11:30:38.181Z,34.61
2022-08-03T11:31:49.917Z,34.54
2022-08-03T11:32:53.880Z,34.60
2022-08-03T11:34:05.986Z,34.46
2022-08-03T11:35:10.399Z,34.37
2022-08-03T11:36:11.917Z,34.43
2022-08-03T11:37:20.870Z,34.59
2022-08-03T11:38:22.635Z,34.73
2022-08-03T11:39:38.370Z,34.86
2022-08-03T11:40:44.024Z,34.71
2022-08-03T11:41:45.880Z,34.76
2022-08-03T11:42:47.950Z,34.79
2022-08-03T11:43:49.455Z,34.89
2022-08-03T11:44:59.189Z,34.94
2022-08-03T11:46:14.371Z,34.99
2022-08-03T11:47:30.139Z,35.06
2022-08-03T11:48:41.902Z,35.20
2022-08-03T11:49:51.348Z,35.38
2022-08-03T11:50:53.077Z,35.35
2022-08-03T11:51:54.709Z,35.22
2022-08-03T11:52:56.387Z,35.32
2022-08-03T11:54:05.821Z,35.33
2022-08-03T11:55:12.799Z,35.36
2022-08-03T11:56:14.579Z,35.34
2022-08-03T11:59:14.247Z,35.63
2022-08-03T11:59:15.325Z,35.49
2022-08-03T12:00:26.917Z,35.58
2022-08-03T12:01:28.434Z,35.68
2022-08-03T12:02:29.905Z,35.76
2022-08-03T12:03:34.786Z,35.69
2022-08-03T12:04:55.895Z,35.75
2022-08-03T12:05:57.459Z,35.93
2022-08-03T12:07:00.556Z,36.05
2022-08-03T12:08:06.420Z,35.99
2022-08-03T12:09:17.871Z,35.86
2022-08-03T12:10:22.948Z,35.94
2022-08-03T12:11:24.491Z,35.91
2022-08-03T12:12:26.112Z,35.90
2022-08-03T12:14:27.420Z,35.96
2022-08-03T12:14:58.777Z,35.77
2022-08-03T12:16:00.285Z,35.84
2022-08-03T12:17:01.839Z,36.01
2022-08-03T12:18:12.499Z,36.24
2022-08-03T12:19:14.812Z,36.14
2022-08-03T12:20:34.920Z,36.15
2022-08-03T12:21:57.114Z,36.22
2022-08-03T12:23:04.286Z,36.20
2022-08-03T12:24:06.040Z,36.19
2022-08-03T12:25:08.991Z,36.32
2022-08-03T12:26:10.605Z,36.34
2022-08-03T12:27:12.207Z,36.33
2022-08-03T12:28:28.346Z,36.42
2022-08-03T12:29:39.816Z,36.47
2022-08-03T12:30:41.646Z,36.39
2022-08-03T12:31:43.195Z,36.33
2022-08-03T12:32:45.278Z,36.40
2022-08-03T12:34:02.962Z,36.33
2022-08-03T12:35:05.116Z,36.47
2022-08-03T12:36:08.963Z,36.73
2022-08-03T12:37:21.774Z,36.73
2022-08-03T12:38:31.627Z,36.69
2022-08-03T12:39:38.205Z,36.57
2022-08-03T12:41:01.916Z,36.41
2022-08-03T12:42:03.630Z,36.61
2022-08-03T12:43:13.271Z,36.65
2022-08-03T12:44:15.688Z,36.63
2022-08-03T12:45:29.106Z,36.69
2022-08-03T12:46:47.015Z,36.72
2022-08-03T12:47:56.646Z,36.79
2022-08-03T12:48:59.007Z,36.63
2022-08-03T12:50:00.548Z,36.56
2022-08-03T12:51:10.293Z,36.68
2022-08-03T12:52:11.912Z,36.67
2022-08-03T12:53:28.880Z,36.53
2022-08-03T12:54:31.495Z,36.64
2022-08-03T12:55:57.083Z,36.74
2022-08-03T12:57:10.467Z,36.86
2022-08-03T12:58:29.919Z,36.70
2022-08-03T12:59:41.307Z,36.91
2022-08-03T13:00:55.370Z,36.93
2022-08-03T13:01:57.499Z,36.90
2022-08-03T13:03:26.711Z,36.81
2022-08-03T13:04:33.673Z,36.63
2022-08-03T13:05:45.236Z,36.66
2022-08-03T13:07:02.528Z,36.74
2022-08-03T13:08:05.036Z,36.96
2022-08-03T13:09:07.737Z,37.02
2022-08-03T13:10:10.846Z,37.22
2022-08-03T13:11:47.579Z,37.21
2022-08-03T13:12:49.003Z,37.21
2022-08-03T13:13:52.670Z,37.24
2022-08-03T13:14:59.442Z,36.87
2022-08-03T13:16:00.955Z,36.84
2022-08-03T13:17:02.808Z,36.90
2022-08-03T13:18:04.345Z,36.97
2022-08-03T13:19:05.774Z,36.97
2022-08-03T13:20:17.463Z,36.98
2022-08-03T13:21:20.650Z,36.92
2022-08-03T13:22:28.075Z,37.01
2022-08-03T13:23:29.682Z,37.16
2022-08-03T13:24:32.209Z,37.28
2022-08-03T13:25:33.762Z,37.46
2022-08-03T13:26:35.283Z,37.46
2022-08-03T13:28:05.169Z,37.56
2022-08-03T13:28:58.252Z,37.51
2022-08-03T13:29:59.791Z,37.49
2022-08-03T13:31:01.537Z,37.48
2022-08-03T13:32:04.260Z,37.35
2022-08-03T13:33:05.757Z,37.34
2022-08-03T13:34:07.308Z,37.46
2022-08-03T13:35:09.989Z,37.62
2022-08-03T13:36:11.583Z,37.55
2022-08-03T13:37:14.334Z,37.29
2022-08-03T13:38:16.068Z,37.21
2022-08-03T13:39:18.931Z,37.33
2022-08-03T13:40:23.682Z,37.07
2022-08-03T13:41:32.031Z,36.80
2022-08-03T13:42:35.983Z,36.81
2022-08-03T13:43:37.460Z,36.98
2022-08-03T13:44:38.976Z,37.15
2022-08-03T13:45:40.447Z,37.32
2022-08-03T13:46:42.118Z,37.31
2022-08-03T13:47:50.949Z,37.40
2022-08-03T13:48:54.084Z,37.51
2022-08-03T13:50:00.802Z,37.43
2022-08-03T13:51:21.703Z,37.56
2022-08-03T13:52:24.255Z,37.78
2022-08-03T13:53:25.760Z,37.94
2022-08-03T13:54:27.396Z,37.99
2022-08-03T13:55:28.976Z,38.03
2022-08-03T13:56:31.177Z,38.02
2022-08-03T13:58:03.179Z,37.83
2022-08-03T13:58:55.094Z,37.60
2022-08-03T13:59:56.591Z,37.76
2022-08-03T14:00:58.171Z,37.89
2022-08-03T14:01:59.730Z,37.93
2022-08-03T14:03:08.006Z,38.12
2022-08-03T14:04:21.547Z,38.01
2022-08-03T14:05:23.998Z,37.85
2022-08-03T14:06:25.669Z,37.72
2022-08-03T14:07:27.235Z,37.77
2022-08-03T14:08:28.892Z,37.65
2022-08-03T14:09:30.382Z,37.61
2022-08-03T14:10:36.591Z,37.50
2022-08-03T14:12:07.249Z,37.64
2022-08-03T14:12:59.723Z,37.78